Date,TemperatureHighF,TemperatureAvgF,TemperatureLowF,DewpointHighF,DewpointAvgF,DewpointLowF,HumidityHigh,HumidityAvg,HumidityLow,PressureMaxIn,PressureMinIn,WindSpeedMaxMPH,WindSpeedAvgMPH,GustSpeedMaxMPH,PrecipitationSumIn
2013-1-1,37.9,35.0,31.5,25.4,22.6,18.8,61,60,59,29.65,29.50,0,0,0,0.00
2013-1-2,45.5,35.2,30.7,31.6,21.7,17.1,61,57,54,29.50,29.35,0,0,0,0.00
2013-1-3,46.2,34.4,28.2,28.9,18.6,13.3,55,52,49,29.35,29.23,0,0,0,0.00
2013-1-4,46.0,39.2,34.0,28.9,22.2,16.8,51,50,49,29.47,29.26,0,0,0,0.00
2013-1-5,40.8,40.6,37.6,24.4,23.6,22.0,53,50,50,29.41,29.26,0,0,0,0.00
2013-1-6,44.2,38.5,34.7,28.5,23.0,19.8,54,53,53,29.29,29.09,0,0,0,0.00
2013-1-7,53.2,43.0,37.6,36.4,26.7,22.0,55,52,48,29.32,28.94,22,4,22,0.04
2013-1-8,49.3,42.4,37.6,32.9,25.8,21.1,54,51,48,29.32,28.82,27,5,27,0.04
2013-1-9,45.1,37.8,31.5,28.9,23.2,17.6,57,55,52,29.09,28.85,27,6,27,0.04
2013-1-10,37.2,33.0,30.4,22.6,18.5,15.7,56,55,54,29.29,29.09,14,3,14,0.00
2013-1-11,39.0,30.5,26.1,22.4,14.9,8.6,55,52,47,29.47,29.29,15,2,15,0.16
2013-1-12,39.2,29.0,24.4,19.7,10.4,6.6,47,45,43,29.59,29.44,9,2,9,0.08
2013-1-13,37.0,31.1,26.4,17.2,11.6,7.3,45,44,43,29.62,29.56,9,3,9,0.00
2013-1-14,39.2,34.9,32.2,19.5,15.5,12.7,46,44,43,29.71,29.59,5,0,5,0.12
2013-1-15,38.8,35.4,32.0,21.6,18.0,13.9,50,49,46,29.85,29.71,0,0,0,0.08
2013-1-16,38.1,35.1,32.5,21.1,18.3,15.5,50,50,49,29.83,29.68,0,0,0,0.00
2013-1-17,44.8,36.3,33.3,27.8,20.0,17.1,53,51,50,29.68,29.44,9,1,9,0.00
2013-1-18,36.7,33.5,30.4,20.4,18.2,14.0,57,53,50,29.50,29.41,11,2,11,0.00
2013-1-19,40.3,34.7,32.5,29.8,23.6,19.2,67,63,57,29.53,29.50,8,2,8,0.00
2013-1-20,40.3,34.4,30.2,32.7,26.1,20.9,75,71,66,29.56,29.44,6,1,6,0.00
2013-1-21,37.0,33.8,30.7,29.0,26.1,23.5,74,73,72,29.44,29.29,11,2,11,0.00
2013-1-22,35.1,32.3,29.7,26.8,24.7,22.4,74,73,72,29.29,29.09,12,1,12,0.00
2013-1-23,42.3,38.1,34.7,33.5,29.5,26.6,72,71,70,29.26,29.00,14,4,14,0.04
2013-1-24,40.3,37.8,34.7,31.3,28.9,25.9,71,70,70,29.35,29.15,16,4,16,0.00
2013-1-25,49.6,40.2,35.4,40.1,31.0,26.3,71,69,68,29.23,29.06,11,2,11,0.00
2013-1-26,43.2,38.4,35.8,34.0,29.4,26.6,70,70,69,29.21,29.00,9,2,9,0.08
2013-1-27,40.8,37.6,35.1,31.8,28.7,26.3,71,70,70,29.21,29.12,18,3,18,0.00
2013-1-28,43.5,38.9,36.3,33.7,29.7,27.5,70,69,68,29.23,29.15,28,11,28,0.12
2013-1-29,45.3,43.3,41.4,34.3,32.6,30.5,68,66,65,29.47,29.23,31,5,31,0.04
2013-1-30,46.8,43.9,41.4,36.0,33.3,30.5,67,66,65,29.53,29.47,0,0,0,0.08
2013-1-31,53.8,45.1,40.5,43.0,34.7,30.4,68,67,66,29.53,29.47,10,2,10,0.08
2013-2-1,50.7,41.6,37.9,39.7,31.2,27.2,67,66,65,29.59,29.50,10,3,10,0.08
2013-2-2,42.6,40.0,35.4,32.1,29.5,24.8,66,66,65,29.56,29.41,10,2,10,0.04
2013-2-3,46.8,40.6,34.3,36.0,30.1,23.8,66,66,65,29.47,29.38,11,2,11,0.00
2013-2-4,43.3,43.3,43.3,32.8,32.8,32.8,66,66,66,29.41,29.41,0,0,0,0.00
2013-2-5,43.3,43.3,43.3,32.8,32.8,32.8,66,66,66,29.41,29.41,0,0,0,0.00
2013-2-6,43.3,43.3,43.3,32.8,32.8,32.8,66,66,66,29.41,29.41,0,0,0,0.00
2013-2-7,43.3,43.3,43.3,32.8,32.8,32.8,66,66,66,29.41,29.41,0,0,0,0.00
2013-2-8,43.3,43.3,43.3,32.8,32.8,32.8,66,66,66,29.41,29.41,0,0,0,0.00
2013-2-9,43.3,43.3,43.3,32.8,32.8,32.8,66,66,66,29.41,29.41,0,0,0,0.00
2013-2-10,43.3,43.3,43.3,32.8,32.8,32.8,66,66,66,29.41,29.41,0,0,0,0.00
2013-2-11,43.3,43.3,43.3,32.8,32.8,32.8,66,66,66,29.41,29.41,0,0,0,0.00
2013-2-12,43.3,43.3,43.3,32.8,32.8,32.8,66,66,66,29.41,29.41,0,0,0,0.00
2013-2-13,43.3,43.3,43.3,32.8,32.8,32.8,66,66,66,29.41,29.41,0,0,0,0.00
2013-2-14,43.3,43.3,43.3,32.8,32.8,32.8,66,66,66,29.41,29.41,0,0,0,0.00
2013-2-15,43.3,43.3,43.3,32.8,32.8,32.8,66,66,66,29.41,29.41,0,0,0,0.00
2013-2-16,43.3,43.3,43.3,32.8,32.8,32.8,66,66,66,29.41,29.41,0,0,0,0.00
2013-2-17,43.3,43.3,43.3,32.8,32.8,32.8,66,66,66,29.41,29.41,0,0,0,0.00
2013-2-18,43.3,41.6,35.4,32.8,28.6,15.2,66,60,43,29.41,28.88,13,0,13,0.24
2013-2-19,48.7,39.0,34.5,26.1,18.1,14.2,44,42,41,29.15,28.88,13,4,13,0.00
2013-2-20,46.6,37.8,33.3,23.4,16.0,12.1,41,41,40,29.18,29.12,17,4,17,0.00
2013-2-21,49.1,39.9,34.0,25.7,17.5,12.8,42,40,38,29.21,29.12,17,4,17,0.00
2013-2-22,48.0,39.2,33.6,24.9,17.1,12.4,41,40,39,29.15,28.82,27,6,27,0.04
2013-2-23,49.8,40.9,34.5,24.5,15.7,8.6,41,36,30,29.50,29.03,42,11,42,0.00
2013-2-24,56.1,41.9,36.3,24.3,13.1,8.6,32,31,28,29.50,29.00,22,3,22,0.00
2013-2-25,50.9,41.9,34.3,19.3,10.5,-0.6,34,28,21,29.44,28.97,37,10,37,0.00
2013-2-26,46.9,38.9,34.5,12.2,5.6,-0.1,27,25,22,29.44,29.26,13,3,13,0.00
2013-2-27,49.6,41.0,35.2,17.9,11.2,5.9,30,29,27,29.44,29.32,14,4,14,0.00
2013-2-28,50.2,43.5,38.7,23.6,16.8,9.9,38,34,30,29.41,29.29,31,6,31,0.00
2013-3-1,65.1,49.8,43.3,36.0,23.7,19.3,38,36,31,29.44,29.38,13,4,13,0.00
2013-3-2,48.6,43.3,35.4,24.1,19.2,12.5,40,38,34,29.41,29.23,29,8,29,0.00
2013-3-3,51.4,40.5,34.7,21.1,13.1,7.2,38,32,28,29.47,29.35,23,8,23,0.00
2013-3-4,50.5,39.1,32.5,19.3,10.8,5.3,33,31,28,29.44,29.12,13,4,13,0.00
2013-3-5,50.2,41.2,36.0,18.4,11.8,8.3,31,30,28,29.12,28.91,33,6,33,0.00
2013-3-6,39.2,37.9,36.3,14.7,12.4,9.2,39,35,31,29.06,28.82,9,3,9,0.24
2013-3-7,45.3,40.2,36.0,21.8,17.5,14.6,41,39,39,29.26,29.06,10,2,10,0.00
2013-3-8,50.0,41.0,36.7,26.3,18.5,14.7,41,40,39,29.41,29.26,13,3,13,0.00
2013-3-9,53.8,42.2,33.6,27.8,17.8,11.5,40,37,33,29.65,29.41,11,4,11,0.00
2013-3-10,41.5,40.2,39.4,18.1,15.9,13.7,39,37,34,29.65,29.56,10,3,10,0.04
2013-3-11,47.7,41.9,39.2,25.1,19.6,16.5,41,40,39,29.59,29.23,4,0,4,0.00
2013-3-12,53.2,47.6,40.3,29.6,24.9,18.5,42,41,39,29.23,29.15,13,2,13,0.08
2013-3-13,54.0,48.5,44.2,33.1,27.7,22.9,46,44,42,29.29,29.21,9,2,9,0.12
2013-3-14,55.2,48.1,44.1,34.7,28.5,24.5,47,46,45,29.26,29.18,13,3,13,0.00
2013-3-15,56.1,46.6,40.5,35.6,27.2,21.8,48,46,45,29.35,29.26,16,3,16,0.00
2013-3-16,45.0,41.6,34.9,27.0,23.4,17.2,49,48,47,29.29,29.03,30,8,30,0.20
2013-3-17,48.9,39.2,34.3,24.6,17.4,11.4,48,41,36,29.32,29.09,32,10,32,0.00
2013-3-18,51.3,40.6,34.3,23.1,14.7,7.6,39,34,30,29.38,29.18,18,7,20,0.00
2013-3-19,57.2,40.9,33.6,27.3,13.0,7.1,35,32,27,29.38,28.67,32,7,32,0.00
2013-3-20,51.3,44.1,33.1,25.4,18.0,7.1,37,35,32,29.15,28.44,27,8,27,0.00
2013-3-21,48.7,37.2,31.6,19.4,10.1,5.8,33,32,30,29.32,29.15,28,8,28,0.04
2013-3-22,48.9,38.2,32.5,17.1,8.9,1.2,31,29,25,29.50,29.32,17,6,17,0.00
2013-3-23,51.3,39.1,32.7,18.4,8.6,3.2,30,28,26,29.50,29.44,16,3,16,0.00
2013-3-24,52.5,39.9,33.4,19.4,9.5,3.4,30,28,26,29.44,29.26,11,4,11,0.00
2013-3-25,58.1,44.8,35.1,21.4,11.6,5.0,30,26,20,29.29,29.12,11,3,11,0.00
2013-3-26,57.0,47.9,40.6,21.6,10.7,3.8,25,22,20,29.21,29.12,10,3,10,0.00
2013-3-27,54.9,48.3,43.3,20.6,14.2,8.3,28,25,22,29.18,29.12,11,4,11,0.00
2013-3-28,59.7,48.5,42.1,28.1,17.9,12.0,31,29,28,29.32,29.18,8,3,8,0.00
2013-3-29,63.9,50.5,41.4,29.3,20.2,13.7,35,30,26,29.44,29.32,11,3,11,0.00
2013-3-30,64.2,52.8,43.7,26.5,19.0,12.8,29,26,23,29.44,29.26,12,4,12,0.00
2013-3-31,68.2,55.9,46.4,27.8,17.3,9.6,26,22,17,29.26,29.12,15,5,15,0.00
2013-4-1,61.0,49.4,42.6,26.0,14.4,4.8,29,25,18,29.29,29.12,15,5,15,0.00
2013-4-2,49.8,45.6,43.3,24.6,19.2,14.5,38,35,29,29.35,29.29,9,2,9,0.00
2013-4-3,57.6,48.6,43.7,30.0,22.8,18.5,38,36,32,29.32,29.15,11,1,11,0.00
2013-4-4,49.6,47.3,46.2,24.5,22.1,20.1,39,37,34,29.15,28.73,8,1,8,0.00
2013-4-5,55.9,48.4,45.0,33.2,25.5,22.0,42,40,39,28.97,28.79,0,0,0,0.00
2013-4-6,54.1,45.4,41.2,32.7,24.0,19.9,44,42,41,29.03,28.76,0,0,0,0.12
2013-4-7,52.0,42.3,36.7,30.8,21.8,16.7,46,44,42,29.00,28.70,20,8,20,0.43
2013-4-8,57.7,46.8,40.5,31.7,23.4,18.6,42,40,36,29.38,29.00,19,5,19,0.04
2013-4-9,45.3,43.3,40.6,23.0,20.6,18.6,42,40,38,29.44,29.23,9,1,9,0.04
2013-4-10,57.9,47.4,41.0,35.2,24.7,17.2,46,41,35,29.35,28.97,29,6,29,0.08
2013-4-11,51.6,43.9,37.9,25.1,17.9,10.2,39,35,31,29.41,29.26,22,8,22,0.00
2013-4-12,42.8,39.2,35.1,17.7,13.5,10.2,40,35,32,29.29,28.76,8,1,9,0.04
2013-4-13,52.0,40.1,33.6,26.4,16.7,10.7,40,38,36,29.09,28.85,30,8,32,0.16
2013-4-14,54.0,42.4,35.4,28.5,17.6,9.1,40,37,31,29.09,29.03,13,3,13,0.00
2013-4-15,56.1,44.2,34.2,25.8,15.3,7.6,34,31,27,29.26,29.06,15,6,15,0.00
2013-4-16,60.1,48.2,39.2,22.9,13.8,3.9,29,25,18,29.50,29.26,13,5,13,0.00
2013-4-17,54.9,45.4,41.0,14.6,8.5,3.9,29,22,19,29.56,29.47,18,6,20,0.00
2013-4-18,54.3,45.4,40.1,25.9,17.4,10.6,37,32,29,29.53,29.26,15,3,15,0.00
2013-4-19,49.1,46.5,43.7,25.2,22.9,19.8,42,39,37,29.29,29.18,20,5,20,0.16
2013-4-20,52.2,45.1,42.3,31.5,24.8,22.5,46,44,42,29.38,29.29,17,4,17,0.08
2013-4-21,56.3,44.8,39.7,34.2,24.0,17.4,48,44,39,29.47,29.32,22,4,22,0.08
2013-4-22,60.1,47.6,38.3,28.4,18.8,4.5,40,32,19,29.65,29.47,11,3,11,0.08
2013-4-23,62.4,50.7,40.3,15.6,8.9,2.5,21,18,16,29.53,29.38,15,4,15,0.08
2013-4-24,67.3,54.7,44.6,21.2,11.4,2.5,20,18,15,29.44,29.18,15,4,15,0.08
2013-4-25,69.6,54.7,43.9,22.9,11.7,3.5,20,18,15,29.26,29.15,13,5,13,0.08
2013-4-26,66.6,51.4,39.9,27.1,14.4,4.5,28,23,18,29.38,29.26,16,4,16,0.08
2013-4-27,55.6,48.8,45.0,23.9,16.6,10.1,34,28,21,29.32,29.23,13,5,13,0.08
2013-4-28,50.2,45.2,42.4,24.9,20.8,18.6,39,37,34,29.32,29.03,16,6,16,0.08
2013-4-29,53.6,44.6,37.0,23.4,17.2,7.8,40,33,27,29.23,29.03,32,14,32,0.08
2013-4-30,58.3,44.8,36.3,21.6,11.1,1.0,29,25,18,29.50,29.23,24,6,24,0.08
2013-5-1,61.7,47.9,35.6,19.8,9.3,0.5,24,21,17,29.68,29.50,13,4,13,0.08
2013-5-2,62.6,52.1,43.2,19.6,11.1,4.8,20,19,16,29.65,29.47,10,3,10,0.08
2013-5-3,72.1,58.2,47.1,27.6,16.7,7.0,25,20,15,29.50,29.35,15,5,15,0.08
2013-5-4,77.7,63.4,53.6,26.9,17.5,11.0,20,17,13,29.38,29.15,15,4,15,0.08
2013-5-5,85.6,67.9,57.7,29.2,18.8,13.2,17,15,11,29.15,28.94,14,4,14,0.08
2013-5-6,82.4,69.4,56.8,28.4,18.8,8.4,17,14,12,29.00,28.94,13,5,13,0.08
2013-5-7,67.3,56.4,47.3,29.7,18.6,5.2,27,23,14,29.12,28.94,14,4,14,0.08
2013-5-8,65.5,52.1,45.5,34.9,22.5,14.2,36,31,27,29.23,29.12,13,2,13,0.08
2013-5-9,68.5,54.0,44.1,38.7,25.4,16.8,38,33,26,29.29,29.23,10,3,10,0.08
2013-5-10,72.7,57.5,44.4,39.3,26.0,16.6,37,30,23,29.29,29.23,10,4,10,0.08
2013-5-11,68.5,59.5,51.6,32.7,24.3,18.0,28,26,24,29.26,29.12,17,4,17,0.00
2013-5-12,62.8,57.0,52.5,36.2,29.9,22.5,40,36,28,29.15,29.09,13,4,13,0.04
2013-5-13,61.7,52.3,42.4,39.4,30.0,19.6,45,42,39,29.23,28.97,28,6,28,0.16
2013-5-14,59.4,51.1,41.4,32.2,26.1,19.5,42,38,33,29.26,29.21,13,4,13,0.00
2013-5-15,53.8,53.8,53.8,25.4,25.4,25.4,33,33,33,29.21,29.21,6,6,6,0.00
2013-5-16,53.8,53.8,53.8,25.4,25.4,25.4,33,33,33,29.21,29.21,6,6,6,0.00
2013-5-17,53.8,53.8,53.8,25.4,25.4,25.4,33,33,33,29.21,29.21,6,6,6,0.00
2013-5-18,53.8,53.8,53.8,25.4,25.4,25.4,33,33,33,29.21,29.21,6,6,6,0.00
2013-5-19,53.8,53.8,53.8,25.4,25.4,25.4,33,33,33,29.21,29.21,6,6,6,0.00
2013-5-20,53.8,53.8,53.8,25.4,25.4,25.4,33,33,33,29.21,29.21,6,6,6,0.00
2013-5-21,53.8,53.8,53.8,25.4,25.4,25.4,33,33,33,29.21,29.21,6,6,6,0.00
2013-5-22,53.8,53.8,53.8,25.4,25.4,25.4,33,33,33,29.21,29.21,6,6,6,0.00
2013-5-23,53.8,53.8,53.8,25.4,25.4,25.4,33,33,33,29.21,29.21,6,6,6,0.00
2013-5-24,53.8,53.8,53.8,25.4,25.4,25.4,33,33,33,29.21,29.21,6,6,6,0.00
2013-5-25,53.8,53.8,53.8,25.4,25.4,25.4,33,33,33,29.21,29.21,6,6,6,0.00
2013-5-26,53.8,53.8,53.8,25.4,25.4,25.4,33,33,33,29.21,29.21,6,6,6,0.00
2013-5-27,53.8,53.8,53.8,25.4,25.4,25.4,33,33,33,29.21,29.21,6,6,6,0.00
2013-5-28,53.8,53.8,53.8,25.4,25.4,25.4,33,33,33,29.21,29.21,6,6,6,0.00
2013-5-29,53.8,53.8,53.8,25.4,25.4,25.4,33,33,33,29.21,29.21,6,6,6,0.00
2013-5-30,53.8,53.8,53.8,25.4,25.4,25.4,33,33,33,29.21,29.21,6,6,6,0.00
2013-5-31,53.8,53.8,53.8,25.4,25.4,25.4,33,33,33,29.21,29.21,6,6,6,0.00
2013-6-1,53.8,53.8,53.8,25.4,25.4,25.4,33,33,33,29.21,29.21,6,6,6,0.00
2013-6-2,53.8,53.8,53.8,25.4,25.4,25.4,33,33,33,29.21,29.21,6,6,6,0.00
2013-6-3,53.8,53.8,53.8,25.4,25.4,25.4,33,33,33,29.21,29.21,6,6,6,0.00
2013-6-4,53.8,53.8,53.8,25.4,25.4,25.4,33,33,33,29.21,29.21,6,6,6,0.00
2013-6-5,53.8,53.8,53.8,25.4,25.4,25.4,33,33,33,29.21,29.21,6,6,6,0.00
2013-6-6,53.8,53.8,53.8,25.4,25.4,25.4,33,33,33,29.21,29.21,6,6,6,0.00
2013-6-7,53.8,53.8,53.8,25.4,25.4,25.4,33,33,33,29.21,29.21,6,6,6,0.00
2013-6-8,53.8,53.8,53.8,25.4,25.4,25.4,33,33,33,29.21,29.21,6,6,6,0.00
2013-6-9,53.8,53.8,53.8,25.4,25.4,25.4,33,33,33,29.21,29.21,6,6,6,0.00
2013-6-10,53.8,53.8,53.8,25.4,25.4,25.4,33,33,33,29.21,29.21,6,6,6,0.00
2013-6-11,53.8,53.8,53.8,25.4,25.4,25.4,33,33,33,29.21,29.21,6,6,6,0.00
2013-6-12,53.8,53.8,53.8,25.4,25.4,25.4,33,33,33,29.21,29.21,6,6,6,0.00
2013-6-13,53.8,53.8,53.8,25.4,25.4,25.4,33,33,33,29.21,29.21,6,6,6,0.00
2013-6-14,53.8,53.8,53.8,25.4,25.4,25.4,33,33,33,29.21,29.21,6,6,6,0.00
2013-6-15,53.8,53.8,53.8,25.4,25.4,25.4,33,33,33,29.21,29.21,6,6,6,0.00
2013-6-16,53.8,53.8,53.8,25.4,25.4,25.4,33,33,33,29.21,29.21,6,6,6,0.00
2013-6-17,53.8,53.8,53.8,25.4,25.4,25.4,33,33,33,29.21,29.21,6,6,6,0.00
2013-6-18,53.8,53.8,53.8,25.4,25.4,25.4,33,33,33,29.21,29.21,6,6,6,0.00
2013-6-19,53.8,53.8,53.8,25.4,25.4,25.4,33,33,33,29.21,29.21,6,6,6,0.00
2013-6-20,53.8,53.8,53.8,25.4,25.4,25.4,33,33,33,29.21,29.21,6,6,6,0.00
2013-6-21,53.8,53.8,53.8,25.4,25.4,25.4,33,33,33,29.21,29.21,6,6,6,0.00
2013-6-22,53.8,53.8,53.8,25.4,25.4,25.4,33,33,33,29.21,29.21,6,6,6,0.00
2013-6-23,53.8,53.8,53.8,25.4,25.4,25.4,33,33,33,29.21,29.21,6,6,6,0.00
2013-6-24,53.8,53.8,53.8,25.4,25.4,25.4,33,33,33,29.21,29.21,6,6,6,0.00
2013-6-25,53.8,53.8,53.8,25.4,25.4,25.4,33,33,33,29.21,29.21,6,6,6,0.00
2013-6-26,53.8,53.8,53.8,25.4,25.4,25.4,33,33,33,29.21,29.21,6,6,6,0.00
2013-6-27,53.8,53.8,53.8,25.4,25.4,25.4,33,33,33,29.21,29.21,6,6,6,0.00
2013-6-28,53.8,53.8,53.8,25.4,25.4,25.4,33,33,33,29.21,29.21,6,6,6,0.00
2013-6-29,53.8,53.8,53.8,25.4,25.4,25.4,33,33,33,29.21,29.21,6,6,6,0.00
2013-6-30,87.4,68.3,53.8,41.7,32.0,24.0,33,27,18,29.21,28.85,13,6,13,1.54
2013-7-1,80.6,70.2,57.2,37.0,30.8,21.7,27,23,20,29.00,28.88,13,6,13,0.00
2013-7-2,76.1,62.8,54.1,39.4,28.8,21.4,34,28,22,29.09,29.00,17,6,17,0.00
2013-7-3,72.3,60.4,51.8,33.6,25.1,18.9,28,26,22,29.09,29.00,17,8,17,0.00
2013-7-4,73.0,59.4,51.1,36.6,27.4,19.1,35,30,24,29.06,28.97,15,6,15,0.00
2013-7-5,76.8,62.0,51.6,34.0,26.7,15.8,34,27,19,28.97,28.91,14,5,14,0.00
2013-7-6,79.3,64.6,53.6,34.8,25.4,17.0,27,23,16,28.94,28.82,14,5,14,0.00
2013-7-7,80.2,64.2,52.0,35.6,25.2,13.5,27,23,18,28.91,28.85,11,3,11,0.00
2013-7-8,78.4,64.8,52.0,39.3,28.8,18.6,33,26,21,29.03,28.88,11,3,11,0.00
2013-7-9,71.2,71.2,71.2,30.5,30.5,30.5,22,22,22,29.03,29.03,0,0,0,0.00
2013-7-10,71.2,65.3,51.4,34.7,28.1,18.0,32,25,22,29.03,28.91,18,5,18,0.00
2013-7-11,63.0,56.0,51.8,27.9,22.8,18.9,30,27,25,29.03,28.91,17,6,17,0.00
2013-7-12,68.2,58.1,50.2,30.5,23.9,17.6,29,27,23,29.03,28.91,17,6,17,0.00
2013-7-13,75.9,60.5,47.7,33.3,23.3,16.1,30,24,17,29.15,29.03,14,5,14,0.00
2013-7-14,75.2,63.7,53.1,28.4,19.6,10.7,23,18,14,29.06,28.97,17,6,17,0.08
2013-7-15,81.7,67.7,56.1,31.2,22.0,15.3,24,18,12,29.03,28.88,9,4,11,0.00
2013-7-16,65.7,64.9,62.1,17.1,16.6,15.4,16,15,15,28.91,28.85,10,6,10,0.00
2013-7-17,65.7,65.7,65.7,16.8,16.8,16.8,15,15,15,28.85,28.85,6,6,6,0.00
2013-7-18,65.7,65.7,65.7,16.8,16.8,16.8,15,15,15,28.85,28.85,6,6,6,0.00
2013-7-19,65.7,65.7,65.7,16.8,16.8,16.8,15,15,15,28.85,28.85,6,6,6,0.00
2013-7-20,65.7,65.7,65.7,16.8,16.8,16.8,15,15,15,28.85,28.85,6,6,6,0.00
2013-7-21,65.7,65.7,65.7,16.8,16.8,16.8,15,15,15,28.85,28.85,6,6,6,0.00
2013-7-22,65.7,65.7,65.7,16.8,16.8,16.8,15,15,15,28.85,28.85,6,6,6,0.00
2013-7-23,65.7,65.7,65.7,16.8,16.8,16.8,15,15,15,28.85,28.85,6,6,6,0.00
2013-7-24,65.7,65.7,65.7,16.8,16.8,16.8,15,15,15,28.85,28.85,6,6,6,0.00
2013-7-25,79.5,69.4,56.5,31.9,22.6,12.2,21,17,15,29.06,28.85,13,6,13,0.00
2013-7-26,78.3,65.5,53.1,30.4,20.7,11.3,22,18,14,29.09,29.00,16,5,16,0.00
2013-7-27,78.3,61.8,49.5,32.5,22.7,9.7,30,23,15,29.06,28.94,17,6,17,0.00
2013-7-28,77.5,62.8,52.5,33.7,24.0,14.0,26,23,17,28.94,28.88,13,4,13,0.00
2013-7-29,75.9,60.7,51.3,37.4,25.9,18.4,35,27,19,28.94,28.88,11,3,11,0.00
2013-7-30,75.9,59.3,48.4,37.7,25.6,16.8,34,28,22,29.06,28.94,11,3,11,0.00
2013-7-31,75.6,58.9,48.4,40.2,26.3,17.6,35,29,23,29.03,28.91,13,3,13,0.00
2013-8-1,71.4,57.3,51.3,39.7,28.3,21.7,37,33,28,28.97,28.94,13,3,13,0.00
2013-8-2,57.9,55.6,53.4,34.2,30.7,25.5,42,38,33,29.06,28.94,9,2,9,0.04
2013-8-3,70.5,60.1,54.5,44.7,36.2,29.8,45,41,34,29.06,28.97,13,4,13,0.00
2013-8-4,80.8,66.2,55.2,43.6,34.4,24.3,38,31,21,28.97,28.88,13,5,13,0.00
2013-8-5,80.4,67.9,58.8,36.5,28.1,18.5,29,23,15,28.94,28.85,13,5,13,0.00
2013-8-6,82.6,66.2,49.6,36.6,23.5,11.3,26,20,14,28.88,28.82,12,4,12,0.00
2013-8-7,82.8,68.2,51.1,32.3,22.7,9.7,24,18,14,28.88,28.79,19,5,19,0.00
2013-8-8,77.5,65.8,55.9,34.6,25.7,13.4,27,22,17,28.91,17.72,15,5,15,0.00
2013-8-9,82.8,68.5,52.0,35.6,26.5,19.1,29,21,14,17.72,17.72,15,4,15,0.00
2013-8-10,78.3,63.1,54.0,38.2,27.9,19.2,34,26,20,17.72,17.72,21,5,21,0.00
2013-8-11,69.8,58.1,53.8,39.3,27.5,20.5,35,31,26,17.72,17.72,13,4,13,0.00
2013-8-12,72.0,60.8,52.9,39.0,29.7,21.4,36,31,23,17.72,17.72,13,5,13,0.00
2013-8-13,77.2,63.4,55.2,35.4,28.3,15.5,35,27,20,17.72,17.72,13,4,13,0.00
2013-8-14,71.6,62.0,57.2,31.7,26.3,21.7,32,26,22,17.72,17.72,11,3,11,0.08
2013-8-15,65.1,60.6,57.2,39.6,34.1,29.4,41,37,32,17.72,17.72,9,1,9,0.00
2013-8-16,78.1,65.1,55.4,47.8,36.9,27.8,44,36,24,17.72,17.72,13,4,13,0.00
2013-8-17,70.0,63.2,56.8,37.7,30.6,25.8,34,29,26,17.72,17.72,14,5,14,0.00
2013-8-18,70.7,62.3,57.2,38.6,30.6,26.0,35,30,26,17.72,17.72,15,6,15,0.00
2013-8-19,73.9,62.0,55.6,38.2,29.0,22.2,34,29,24,17.72,17.72,22,6,22,0.00
2013-8-20,77.5,63.5,51.3,32.5,24.0,13.7,27,22,16,17.72,17.72,20,6,20,0.00
2013-8-21,81.7,67.8,55.9,33.3,21.6,11.8,21,17,12,17.72,17.72,15,4,15,0.00
2013-8-22,87.4,70.3,58.8,30.6,20.1,14.1,17,15,11,17.72,17.72,12,3,12,0.12
2013-8-23,67.8,61.3,55.8,29.4,22.4,12.2,30,22,17,17.72,17.72,15,4,15,0.00
2013-8-24,69.8,60.1,56.1,40.6,31.5,26.2,36,34,30,17.72,17.72,13,4,13,0.08
2013-8-25,72.1,60.1,52.0,40.4,29.9,21.2,37,32,25,17.72,17.72,11,3,11,0.00
2013-8-26,73.2,60.1,52.2,34.0,25.4,20.4,31,27,22,17.72,17.72,14,4,14,0.00
2013-8-27,72.9,61.5,56.3,31.8,25.0,20.8,26,25,21,17.72,17.72,12,3,12,0.04
2013-8-28,73.0,62.3,55.9,42.3,31.2,22.6,35,31,26,17.72,17.72,10,3,10,0.00
2013-8-29,73.4,62.9,58.8,44.7,35.5,29.2,39,36,31,17.72,17.72,13,3,13,0.00
2013-8-30,73.8,62.3,54.5,45.1,35.7,27.8,43,37,30,17.72,17.72,13,4,13,0.00
2013-8-31,77.0,63.7,53.8,41.1,31.5,23.8,35,30,22,17.72,17.72,11,3,11,0.00
2013-9-1,77.4,65.3,57.7,35.1,27.2,18.5,27,24,18,17.72,17.72,11,3,11,0.00
2013-9-2,78.6,63.2,56.8,37.5,27.3,18.4,31,26,21,17.72,17.72,14,4,14,0.00
2013-9-3,71.8,61.6,56.7,42.0,32.4,23.1,37,33,26,17.72,17.72,12,3,12,0.16
2013-9-4,68.2,61.4,56.3,42.3,35.3,30.9,40,38,35,17.72,17.72,11,3,11,0.00
2013-9-5,68.9,62.5,57.9,41.4,35.3,30.5,38,36,34,17.72,17.72,15,5,15,0.08
2013-9-6,70.9,62.3,58.8,46.7,38.2,33.7,44,41,36,17.72,17.72,17,2,17,0.00
2013-9-7,71.8,61.7,57.0,47.2,39.1,33.0,46,43,38,17.72,17.72,10,4,10,0.00
2013-9-8,77.2,64.1,54.9,43.8,35.4,24.2,41,35,27,17.72,17.72,12,4,12,0.00
2013-9-9,77.2,63.2,53.6,43.1,32.1,23.2,37,31,24,17.72,17.72,10,3,10,0.00
2013-9-10,79.9,66.6,57.2,38.8,31.3,24.5,34,27,21,17.72,17.72,13,4,13,0.00
2013-9-11,88.7,73.1,61.3,39.0,29.2,22.9,25,20,13,17.72,17.72,11,3,11,0.00
2013-9-12,79.3,67.9,55.6,35.2,25.4,17.2,25,20,17,17.72,17.72,13,4,13,0.00
2013-9-13,72.5,59.9,54.1,40.4,27.7,19.7,34,29,25,17.72,17.72,10,2,10,0.00
2013-9-14,72.0,60.3,54.9,43.2,32.2,27.5,37,35,31,17.72,17.72,9,2,9,0.00
2013-9-15,60.8,56.7,54.1,35.7,31.4,27.4,41,38,34,17.72,17.72,15,3,15,0.16
2013-9-16,59.4,57.0,54.3,38.1,35.7,33.7,47,45,41,17.72,17.72,0,0,0,0.08
2013-9-17,66.7,57.3,52.5,39.7,33.1,27.0,46,40,36,17.72,17.72,20,3,20,0.00
2013-9-18,71.8,57.0,48.4,39.7,28.0,20.6,37,33,27,17.72,17.72,15,2,15,0.00
2013-9-19,70.2,58.6,50.4,36.1,26.7,20.2,35,30,24,17.72,17.72,13,5,13,0.00
2013-9-20,67.8,58.9,53.2,29.6,23.5,19.6,28,25,23,17.72,17.72,14,2,14,0.00
2013-9-21,64.6,56.2,51.6,35.5,28.2,22.8,38,34,28,17.72,17.72,13,3,13,0.08
2013-9-22,64.2,54.3,50.9,38.8,30.0,26.2,40,39,38,17.72,17.72,24,4,24,0.04
2013-9-23,57.4,51.4,48.2,34.5,28.5,25.5,43,41,40,17.72,17.72,12,3,12,0.04
2013-9-24,60.3,50.7,46.4,37.7,28.4,23.6,44,42,39,17.72,17.72,13,5,13,0.00
2013-9-25,65.3,51.8,45.7,38.9,27.3,19.0,44,39,31,17.72,17.72,17,6,17,0.04
2013-9-26,64.9,52.9,45.7,33.2,22.6,15.7,35,31,25,17.72,17.72,10,4,10,0.04
2013-9-27,58.1,52.4,47.7,29.9,23.5,16.2,36,32,28,17.72,17.72,10,3,10,0.00
2013-9-28,58.3,51.5,48.0,32.8,27.1,23.2,42,39,36,17.72,17.72,0,0,0,0.08
2013-9-29,59.7,51.3,46.0,36.1,28.4,24.0,43,41,38,17.72,17.72,0,0,0,0.04
2013-9-30,59.5,48.7,43.2,34.6,25.5,20.6,42,40,39,17.72,17.72,9,1,10,0.16
2013-10-1,59.4,48.5,42.1,33.3,24.7,19.5,41,39,36,17.72,17.72,14,4,14,0.12
2013-10-2,49.6,47.0,43.7,26.3,24.0,21.6,42,40,38,17.72,17.72,8,1,8,0.12
2013-10-3,60.3,49.0,44.1,36.3,26.7,21.6,44,42,38,17.72,17.72,10,1,10,0.04
2013-10-4,62.4,48.8,41.0,38.7,25.9,19.7,43,41,38,17.72,17.72,10,2,10,0.08
2013-10-5,50.4,48.3,48.0,27.0,25.1,24.7,41,40,40,17.72,17.72,8,4,8,0.00
2013-10-6,48.0,48.0,48.0,24.9,24.9,24.9,40,40,40,17.72,17.72,4,4,4,0.00
2013-10-7,48.0,48.0,48.0,24.9,24.9,24.9,40,40,40,17.72,17.72,4,4,4,0.00
2013-10-8,48.0,48.0,48.0,24.9,24.9,24.9,40,40,40,17.72,17.72,4,4,4,0.00
2013-10-9,48.0,48.0,48.0,24.9,24.9,24.9,40,40,40,17.72,17.72,4,4,4,0.00
2013-10-10,48.0,48.0,48.0,24.9,24.9,24.9,40,40,40,17.72,17.72,4,4,4,0.00
2013-10-11,48.0,48.0,48.0,24.9,24.9,24.9,40,40,40,17.72,17.72,4,4,4,0.00
2013-10-12,48.0,48.0,48.0,24.9,24.9,24.9,40,40,40,17.72,17.72,4,4,4,0.00
2013-10-19,54.1,46.0,41.4,27.8,21.1,13.7,39,37,32,29.38,29.32,8,3,8,0.00
2013-10-20,48.4,44.6,42.6,26.0,22.2,19.4,44,41,39,29.38,29.32,8,1,8,0.00
2013-10-21,61.7,47.5,41.9,40.7,27.6,21.8,47,46,44,29.35,29.29,8,2,8,0.00
2013-10-22,63.1,53.3,44.1,40.2,31.7,24.4,47,44,38,29.32,29.23,14,5,14,0.00
2013-10-23,65.8,53.4,46.2,38.5,28.6,23.2,42,38,34,29.23,29.18,11,3,11,0.00
2013-10-24,61.0,50.3,42.8,33.5,24.9,19.0,39,37,35,29.29,29.21,13,4,13,0.00
2013-10-25,60.6,50.3,45.9,34.9,25.7,21.6,39,38,36,29.50,29.29,10,2,10,0.00
2013-10-26,55.0,48.1,44.8,31.2,24.7,21.5,40,40,38,29.53,29.35,12,3,12,0.00
2013-10-27,55.0,49.5,45.5,32.4,26.3,23.2,43,40,37,29.38,29.15,17,3,17,0.16
2013-10-28,58.3,49.5,43.3,24.9,18.4,5.7,37,29,20,29.21,29.15,13,7,13,0.00
2013-10-29,61.7,48.5,38.8,21.6,9.8,2.3,22,21,19,29.21,29.12,14,4,14,0.00
2013-10-30,55.4,47.3,41.2,21.0,12.9,4.1,27,25,20,29.26,29.21,9,3,9,0.00
2013-10-31,56.3,49.1,44.1,24.5,18.5,13.1,32,29,27,29.41,29.21,6,2,7,0.00
2013-11-1,50.5,48.7,46.8,25.2,23.2,20.6,39,36,33,29.44,28.97,15,3,15,0.08
2013-11-2,49.3,45.3,42.4,27.2,23.0,19.6,43,41,38,29.06,28.53,32,10,32,0.35
2013-11-3,53.8,42.4,36.1,26.3,16.3,9.6,38,34,31,29.26,29.06,13,4,13,0.00
2013-11-4,48.2,40.5,33.4,21.9,14.5,7.9,36,34,33,29.32,29.18,20,3,20,0.04
2013-11-5,49.5,41.8,37.6,24.9,17.9,12.4,40,38,34,29.41,29.18,10,4,11,0.00
2013-11-6,48.9,43.4,38.5,25.7,20.9,16.3,42,40,40,29.47,29.12,12,3,12,0.00
2013-11-7,56.7,47.1,43.3,35.0,25.6,21.8,45,43,41,29.15,28.82,19,6,19,0.12
2013-11-8,57.6,46.5,42.8,33.4,24.8,21.4,45,42,39,29.32,29.15,9,1,9,0.00
2013-11-9,46.8,42.7,39.9,25.0,21.2,18.3,43,42,41,29.32,29.26,8,2,8,0.00
2013-11-10,46.4,43.0,41.0,26.2,22.8,20.2,46,44,43,29.35,29.29,8,2,8,0.04
2013-11-11,54.1,45.9,40.3,33.8,26.0,21.0,47,45,44,29.32,29.15,15,3,15,0.00
2013-11-12,65.1,52.7,46.0,36.8,27.7,21.6,44,38,34,29.50,29.15,23,5,23,0.00
2013-11-13,56.5,48.6,45.1,31.8,24.9,21.1,41,39,38,29.59,29.47,13,4,13,0.00
2013-11-14,55.0,45.2,38.5,31.2,22.7,16.8,41,41,39,29.47,29.23,17,5,17,0.00
2013-11-15,44.4,41.0,37.9,22.8,19.5,16.4,43,42,41,29.23,28.53,34,5,34,0.16
2013-11-16,49.3,41.5,36.1,24.0,17.7,12.9,42,38,35,28.91,28.53,34,6,34,0.00
2013-11-17,56.8,43.4,36.1,24.8,15.7,10.5,35,32,29,29.06,28.91,15,3,15,0.00
2013-11-18,45.3,42.3,38.8,20.6,17.4,12.1,39,36,32,29.06,28.70,15,3,15,0.20
2013-11-19,47.3,39.5,31.5,24.2,17.0,8.2,41,40,37,29.26,28.79,20,6,22,0.16
2013-11-20,45.9,34.3,28.0,18.5,9.1,2.0,38,34,31,29.65,29.23,11,3,11,0.00
2013-11-21,45.9,33.7,28.0,17.0,6.8,2.0,34,32,29,29.83,29.65,11,2,11,0.00
2013-11-22,45.5,35.1,29.5,16.6,7.8,3.3,33,31,30,29.80,29.59,10,3,10,0.00
2013-11-23,48.6,37.7,31.8,20.8,11.1,6.0,35,33,32,29.59,29.38,12,2,12,0.00
2013-11-24,52.9,39.4,34.2,26.7,14.7,9.4,39,36,34,29.41,29.35,8,2,8,0.00
2013-11-25,42.8,38.4,34.7,20.0,15.8,12.6,40,39,37,29.47,29.41,12,3,12,0.00
2013-11-26,45.5,38.0,34.3,22.0,15.7,12.5,41,40,39,29.44,29.26,9,3,10,0.00
2013-11-27,53.1,43.1,37.0,29.4,20.5,15.4,42,40,39,29.26,29.18,9,2,9,0.00
2013-11-28,60.8,47.2,39.6,32.5,21.3,15.5,40,36,31,29.35,29.21,9,3,9,0.00
2013-11-29,49.5,45.5,43.3,23.5,19.7,16.1,38,35,31,29.47,29.32,11,2,11,0.00
2013-11-30,48.4,44.3,42.6,24.9,21.2,19.0,41,40,38,29.47,29.21,8,1,8,0.00
2013-12-1,51.1,45.1,35.4,29.4,23.9,16.2,45,43,41,29.23,28.94,33,7,33,0.20
2013-12-2,46.6,36.3,30.7,23.8,15.6,9.3,45,42,40,29.29,28.97,26,8,26,0.00
2013-12-3,40.6,31.2,26.4,14.0,6.4,2.1,40,35,31,29.47,29.29,23,8,23,0.00
2013-12-4,39.6,30.4,25.3,10.1,2.1,-4.7,31,29,25,29.50,29.44,17,8,17,0.00
2013-12-5,33.4,27.1,23.0,5.3,-1.7,-8.2,32,28,24,29.47,29.32,15,4,15,0.00
2013-12-6,35.2,24.9,20.5,7.5,-2.4,-7.2,32,30,27,29.41,29.32,16,5,16,0.00
2013-12-7,32.0,21.9,17.2,1.8,-8.5,-13.9,29,25,22,29.53,29.38,17,6,17,0.00
2013-12-8,37.6,25.5,18.7,4.1,-6.2,-13.1,25,24,22,29.68,29.53,10,3,10,0.00
2013-12-9,34.2,30.4,25.0,4.6,0.5,-6.9,30,27,23,29.68,29.59,9,3,9,0.00
2013-12-10,38.8,34.1,28.9,11.5,7.3,1.4,34,32,30,29.62,29.56,8,2,8,0.00
2013-12-11,37.8,33.2,30.6,14.9,10.0,5.5,40,37,34,29.56,29.29,15,3,15,0.00
2013-12-12,47.3,36.1,30.4,23.6,14.1,9.0,41,40,38,29.29,29.15,13,3,13,0.00
2013-12-13,53.6,42.7,37.6,29.7,20.1,15.5,41,40,38,29.59,29.26,17,4,17,0.00
2013-12-14,46.2,42.6,40.1,24.8,21.5,18.9,44,43,40,29.59,29.44,16,2,16,0.00
2013-12-15,53.6,44.3,38.5,33.2,23.9,18.5,46,44,43,29.62,29.47,11,2,11,0.00
2013-12-16,52.7,41.4,36.3,31.3,20.8,15.4,46,43,41,29.65,29.44,10,3,10,0.00
2013-12-17,50.2,39.7,34.0,28.6,18.9,13.9,44,43,42,29.44,29.26,16,3,16,0.00
2013-12-18,46.6,38.8,32.0,22.3,15.9,7.5,44,39,34,29.38,29.21,24,8,24,0.00
2013-12-19,38.1,32.9,28.6,11.4,7.5,3.8,37,34,32,29.50,29.32,14,3,14,0.00
2013-12-20,37.4,33.4,30.4,14.6,9.0,4.7,40,36,32,29.32,28.85,16,4,16,0.20
2013-12-21,40.5,38.0,36.1,19.2,16.5,14.2,43,41,40,29.32,29.03,11,0,11,0.24
2013-12-22,44.2,41.5,38.8,25.3,21.8,18.1,48,45,43,29.44,29.32,0,0,0,0.12
2013-12-23,53.2,44.0,37.4,34.1,24.4,15.9,49,46,41,29.68,29.29,34,6,34,0.04
2013-12-24,46.9,38.9,33.1,24.5,17.2,12.0,42,41,40,29.77,29.68,8,2,8,0.00
2013-12-25,49.3,38.1,33.1,26.4,16.2,12.0,42,41,38,29.71,29.53,12,3,12,0.00
2013-12-26,53.2,41.2,36.7,28.5,18.5,14.1,41,40,37,29.53,29.35,13,2,13,0.00
2013-12-27,52.7,40.9,35.4,28.9,18.7,13.1,42,40,39,29.53,29.23,25,6,25,0.04
2013-12-28,44.6,39.1,35.2,23.5,18.4,15.0,44,43,42,29.68,29.53,9,0,9,0.00
2013-12-29,43.3,39.4,34.3,22.8,19.3,14.7,45,44,43,29.65,29.47,0,0,0,0.00
2013-12-30,43.0,40.2,37.2,24.1,21.1,17.5,47,46,44,29.47,29.26,0,0,0,0.00
2013-12-31,45.3,41.0,37.6,27.3,23.3,20.0,50,49,47,29.53,29.32,0,0,0,0.00
2014-1-1,44.2,39.2,36.5,26.8,22.3,19.6,52,50,49,29.56,29.41,0,0,0,0.04
2014-1-2,50.4,41.4,35.2,33.4,25.2,19.8,53,52,51,29.41,29.06,22,3,22,0.16